Portada
METAR-TAF:

METAR-TAF

Aeroports :

Okayama, Japó

latitud: 34-45N, longitud: 133-51E, altitud: 241 m

Observació

L'informe es va fer fa 4 hores i 57 minuts, a les 12:00 UTC
Vent 1 kt amb direcció variable
Temperatura 16°C
Humitat 55%
Pressió 1017 hPa
Visibilitat 10 km o més
Escasses núvols a una alçada de 3500 ft
Cel ennuvolat

METAR: RJOB 061200Z VRB01KT 9999 FEW035 BKN/// 16/07 Q1017

Hora: 01:57 (16:57 UTC)

Pronòstic

L'informe es va fer fa 5 hores i 52 minuts, a les 11:05 UTC
Pronòstic vàlid del 06 a les 12 UTC al 07 a les 18 UTC
Vent 5 kt del Nord/Nord-Est
Visibilitat 10 km o més
Escasses núvols a una alçada de 3000 ft
Evolucionant progressivament
l' 07 a les 00 UTC al 07 a les 03 UTC
Vent 6 kt del Sud
Evolucionant progressivament
l' 07 a les 09 UTC al 07 a les 12 UTC
Vent 4 kt del Nord/Nord-Est

TAF: RJOB 061105Z 0612/0718 02005KT 9999 FEW030 BECMG 0700/0703 18006KT BECMG 0709/0712 02004KT

Observacions i pronòstics meteorològics de més de 4000 aeroports (METAR i TAF).

Les estacions disponibles són els punts grocs i vermells al mapa.

Posi el ratolí al punt desitjat per veure el nom de l'estació.

Feu clic per veure les observacions i els pronòstics meteorològics.

Per canviar el mapa: feu clic els botons verds amb una creu de color negre per apropar; al botó verd amb un guió per allunyar la imatge; o en les fletxes verdes per a mapes adjacents.


METAR-TAF: